Time;durP1;ratioP1;P1;durP2;ratioP2;P2;SDS_P1;SDS_P2;PMS_P1;PMS_P2;Temp;Humidity;BMP_temperature;BMP_pressure;BME280_temperature;BME280_humidity;BME280_pressure;Samples;Min_cycle;Max_cycle;Signal;HPM_P1;HPM_P2
2023/03/11 00:02:09;;;;;;;6.57;1.95;;;;;;;;;;6122738;23;20081;-75
2023/03/11 00:04:34;;;;;;;6.03;1.83;;;;;;;;;;6096270;23;20010;-74
2023/03/11 00:07:00;;;;;;;9.45;1.90;;;;;;;;;;6122490;23;20002;-74
2023/03/11 00:09:25;;;;;;;6.53;1.60;;;;;;;;;;6096429;23;20066;-75
2023/03/11 00:11:51;;;;;;;7.85;2.13;;;;;;;;;;6122268;23;20090;-76
2023/03/11 00:14:16;;;;;;;8.30;1.85;;;;;;;;;;6122332;23;20013;-76
2023/03/11 00:16:41;;;;;;;7.47;1.70;;;;;;;;;;6122371;23;20010;-76
2023/03/11 00:19:09;;;;;;;8.88;2.10;;;;;;;;;;6122106;23;20014;-75
2023/03/11 00:21:34;;;;;;;6.47;1.98;;;;;;;;;;6122315;23;20005;-74
2023/03/11 00:24:02;;;;;;;11.40;1.90;;;;;;;;;;6122481;23;20362;-75
2023/03/11 00:26:28;;;;;;;7.88;2.15;;;;;;;;;;6122468;23;20133;-75
2023/03/11 00:28:54;;;;;;;9.32;1.73;;;;;;;;;;6122086;23;20446;-75
2023/03/11 00:31:20;;;;;;;6.85;1.88;;;;;;;;;;6122418;23;20014;-75
2023/03/11 00:33:45;;;;;;;9.07;1.95;;;;;;;;;;6122291;23;20073;-75
2023/03/11 00:36:32;;;;;;;8.02;1.77;;;;;;;;;;6123497;23;20017;-75
2023/03/11 00:39:00;;;;;;;8.18;1.83;;;;;;;;;;6124011;23;20010;-76
2023/03/11 00:41:26;;;;;;;8.43;2.13;;;;;;;;;;6123962;23;20053;-75
2023/03/11 00:43:52;;;;;;;6.78;1.70;;;;;;;;;;6123959;23;19998;-75
2023/03/11 00:46:17;;;;;;;7.72;1.85;;;;;;;;;;6124124;23;20002;-77
2023/03/11 00:48:42;;;;;;;5.90;1.70;;;;;;;;;;6097736;23;20001;-75
2023/03/11 00:51:13;;;;;;;7.70;1.90;;;;;;;;;;6123723;23;20012;-75
2023/03/11 00:53:38;;;;;;;;;;;;;;;;;;6124509;23;20320;-75
2023/03/11 00:56:13;;;;;;;6.07;1.80;;;;;;;;;;6124013;23;20333;-75
2023/03/11 00:58:40;;;;;;;8.32;2.15;;;;;;;;;;6123457;23;20274;-77
2023/03/11 01:01:17;;;;;;;9.80;2.05;;;;;;;;;;6123785;23;20077;-76
2023/03/11 01:03:42;;;;;;;7.25;2.00;;;;;;;;;;6123714;23;20010;-75
2023/03/11 01:06:08;;;;;;;7.85;1.80;;;;;;;;;;6123812;23;20002;-75
2023/03/11 01:08:34;;;;;;;11.18;1.98;;;;;;;;;;6123557;23;20009;-75
2023/03/11 01:11:00;;;;;;;10.18;2.08;;;;;;;;;;6097716;23;20002;-74
2023/03/11 01:13:28;;;;;;;10.63;2.38;;;;;;;;;;6124115;23;20081;-74
2023/03/11 01:15:53;;;;;;;6.57;1.75;;;;;;;;;;6123889;23;20032;-75
2023/03/11 01:18:19;;;;;;;7.25;1.70;;;;;;;;;;6123385;23;20025;-75
2023/03/11 01:20:45;;;;;;;6.85;1.98;;;;;;;;;;6123810;23;20033;-75
2023/03/11 01:23:12;;;;;;;6.03;1.83;;;;;;;;;;6123776;23;20060;-75
2023/03/11 01:25:38;;;;;;;8.43;1.80;;;;;;;;;;6123654;23;20422;-75
2023/03/11 01:28:05;;;;;;;9.10;1.90;;;;;;;;;;6123405;23;20008;-75
2023/03/11 01:30:30;;;;;;;6.57;1.80;;;;;;;;;;6123562;23;20129;-75
2023/03/11 01:32:56;;;;;;;7.50;1.85;;;;;;;;;;6123545;23;20026;-75
2023/03/11 01:35:24;;;;;;;8.35;1.77;;;;;;;;;;6123795;23;20005;-75
2023/03/11 01:37:50;;;;;;;7.70;1.70;;;;;;;;;;6123646;23;20001;-74
2023/03/11 01:40:38;;;;;;;8.15;1.70;;;;;;;;;;6123281;23;20041;-76
2023/03/11 01:43:06;;;;;;;5.82;1.70;;;;;;;;;;6123307;23;20002;-75
2023/03/11 01:46:00;;;;;;;13.63;1.90;;;;;;;;;;6123446;23;20010;-76
2023/03/11 01:48:27;;;;;;;7.85;1.70;;;;;;;;;;6123097;23;19998;-75
2023/03/11 01:50:53;;;;;;;8.32;1.80;;;;;;;;;;6123508;23;20002;-76
2023/03/11 01:53:19;;;;;;;5.50;1.73;;;;;;;;;;6123391;23;20001;-75
2023/03/11 01:55:45;;;;;;;4.43;1.63;;;;;;;;;;6123477;23;20080;-75
2023/03/11 01:58:24;;;;;;;7.55;1.73;;;;;;;;;;6122826;23;20018;-74
2023/03/11 02:00:50;;;;;;;8.98;1.63;;;;;;;;;;6123141;23;20010;-75
2023/03/11 02:03:27;;;;;;;5.68;1.52;;;;;;;;;;6097202;23;20410;-74
2023/03/11 02:05:54;;;;;;;5.75;1.52;;;;;;;;;;6123316;23;20009;-76
2023/03/11 02:08:20;;;;;;;7.85;1.60;;;;;;;;;;6123378;23;20048;-76
2023/03/11 02:10:46;;;;;;;8.18;1.80;;;;;;;;;;6123093;23;20029;-75
2023/03/11 02:13:12;;;;;;;9.10;1.60;;;;;;;;;;6123172;23;20002;-75
2023/03/11 02:15:37;;;;;;;5.97;1.35;;;;;;;;;;6123333;23;20002;-76
2023/03/11 02:18:05;;;;;;;9.77;1.58;;;;;;;;;;6122915;23;20036;-76
2023/03/11 02:20:52;;;;;;;5.90;1.70;;;;;;;;;;6122960;23;20001;-76
2023/03/11 02:23:23;;;;;;;7.50;1.70;;;;;;;;;;6123263;23;20006;-75
2023/03/11 02:26:03;;;;;;;6.82;1.60;;;;;;;;;;6123123;23;20012;-75
2023/03/11 02:28:30;;;;;;;6.65;1.48;;;;;;;;;;6123011;23;20010;-75
2023/03/11 02:30:56;;;;;;;4.78;1.27;;;;;;;;;;6122898;23;20002;-76
2023/03/11 02:33:27;;;;;;;9.18;1.85;;;;;;;;;;6123179;23;20056;-75
2023/03/11 02:35:53;;;;;;;7.10;1.70;;;;;;;;;;6123106;23;20009;-75
2023/03/11 02:38:18;;;;;;;6.28;1.42;;;;;;;;;;6122852;23;20006;-76
2023/03/11 02:40:51;;;;;;;6.63;1.38;;;;;;;;;;6122711;23;20001;-75
2023/03/11 02:43:21;;;;;;;6.72;1.50;;;;;;;;;;6122904;23;20093;-75
2023/03/11 02:45:48;;;;;;;6.88;1.67;;;;;;;;;;6122956;23;20005;-75
2023/03/11 02:48:15;;;;;;;6.70;1.40;;;;;;;;;;6122978;23;20005;-75
2023/03/11 02:50:40;;;;;;;6.85;1.40;;;;;;;;;;6122809;23;20025;-74
2023/03/11 02:53:06;;;;;;;5.88;1.30;;;;;;;;;;6122838;23;20002;-75
2023/03/11 02:55:32;;;;;;;5.20;1.20;;;;;;;;;;6122726;23;20446;-76
2023/03/11 02:57:57;;;;;;;5.53;1.38;;;;;;;;;;6122214;23;20033;-76
2023/03/11 03:00:23;;;;;;;8.27;1.40;;;;;;;;;;6096566;23;20029;-75
2023/03/11 03:02:51;;;;;;;5.72;1.30;;;;;;;;;;6123140;23;20033;-75
2023/03/11 03:05:19;;;;;;;6.18;1.30;;;;;;;;;;6122816;23;20088;-74
2023/03/11 03:07:45;;;;;;;4.00;1.30;;;;;;;;;;6122899;23;20033;-75
2023/03/11 03:10:11;;;;;;;3.55;1.10;;;;;;;;;;6122425;23;20077;-75
2023/03/11 03:12:36;;;;;;;5.85;1.30;;;;;;;;;;6122526;23;20029;-74
2023/03/11 03:15:02;;;;;;;4.85;1.20;;;;;;;;;;6096759;23;20005;-75
2023/03/11 03:17:27;;;;;;;5.28;1.20;;;;;;;;;;6122645;23;20008;-74
2023/03/11 03:19:53;;;;;;;6.35;1.30;;;;;;;;;;6122367;23;20001;-75
2023/03/11 03:22:18;;;;;;;5.97;1.30;;;;;;;;;;6123139;23;20006;-74
2023/03/11 03:24:43;;;;;;;9.02;1.52;;;;;;;;;;6124004;23;20006;-76
2023/03/11 03:27:09;;;;;;;7.43;1.48;;;;;;;;;;6122377;23;20077;-74
2023/03/11 03:29:34;;;;;;;4.80;1.27;;;;;;;;;;6122402;23;20010;-76
2023/03/11 03:32:00;;;;;;;8.25;1.50;;;;;;;;;;6122617;23;20006;-75
2023/03/11 03:34:25;;;;;;;7.05;1.48;;;;;;;;;;6122484;23;20002;-75
2023/03/11 03:36:50;;;;;;;6.90;1.40;;;;;;;;;;6122672;23;20006;-76
2023/03/11 03:39:18;;;;;;;7.80;1.48;;;;;;;;;;6122429;23;20036;-74
2023/03/11 03:41:44;;;;;;;7.63;1.20;;;;;;;;;;6122369;23;20450;-75
2023/03/11 03:44:09;;;;;;;7.22;1.42;;;;;;;;;;6122453;23;20077;-75
2023/03/11 03:46:34;;;;;;;6.97;1.20;;;;;;;;;;6122455;23;20006;-74
2023/03/11 03:49:00;;;;;;;7.10;1.20;;;;;;;;;;6122540;23;20044;-75
2023/03/11 03:51:25;;;;;;;4.88;1.30;;;;;;;;;;6122146;23;20028;-75
2023/03/11 03:53:50;;;;;;;4.68;1.10;;;;;;;;;;6122428;23;20468;-75
2023/03/11 03:56:17;;;;;;;5.68;1.50;;;;;;;;;;6122650;23;20002;-75
2023/03/11 03:58:43;;;;;;;6.82;1.70;;;;;;;;;;6122198;23;20040;-74
2023/03/11 04:01:09;;;;;;;5.70;1.40;;;;;;;;;;6122302;23;20315;-75
2023/03/11 04:03:37;;;;;;;7.13;1.20;;;;;;;;;;6122512;23;20426;-75
2023/03/11 04:06:21;;;;;;;8.10;1.40;;;;;;;;;;6122224;23;20083;-75
2023/03/11 04:08:47;;;;;;;5.40;1.23;;;;;;;;;;6122455;23;20002;-75
2023/03/11 04:11:13;;;;;;;4.75;1.50;;;;;;;;;;6123543;23;20053;-76
2023/03/11 04:13:38;;;;;;;8.00;1.35;;;;;;;;;;6124265;23;20013;-75
2023/03/11 04:16:05;;;;;;;6.53;1.63;;;;;;;;;;6124370;23;20017;-76
2023/03/11 04:18:31;;;;;;;6.40;1.38;;;;;;;;;;6124309;23;20039;-75
2023/03/11 04:20:56;;;;;;;5.72;1.13;;;;;;;;;;6124144;23;20323;-75
2023/03/11 04:23:21;;;;;;;4.38;1.30;;;;;;;;;;6124081;23;19998;-75
2023/03/11 04:25:47;;;;;;;7.18;1.40;;;;;;;;;;6124238;23;20422;-77
2023/03/11 04:28:12;;;;;;;5.93;1.45;;;;;;;;;;6124142;23;19998;-76
2023/03/11 04:30:39;;;;;;;5.68;1.38;;;;;;;;;;6124160;23;20006;-77
2023/03/11 04:33:05;;;;;;;9.85;1.55;;;;;;;;;;6124365;23;20009;-77
2023/03/11 04:35:30;;;;;;;6.15;1.30;;;;;;;;;;6098369;23;20026;-77
2023/03/11 04:37:56;;;;;;;7.13;1.45;;;;;;;;;;6124048;23;20423;-76
2023/03/11 04:40:21;;;;;;;10.50;1.70;;;;;;;;;;6123882;23;20084;-76
2023/03/11 04:42:47;;;;;;;6.53;1.30;;;;;;;;;;6123720;23;20033;-77
2023/03/11 04:45:12;;;;;;;11.40;1.52;;;;;;;;;;6098295;23;20030;-76
2023/03/11 04:47:37;;;;;;;6.63;1.50;;;;;;;;;;6124011;23;20037;-76
2023/03/11 04:50:03;;;;;;;9.52;1.60;;;;;;;;;;6124009;23;20009;-76
2023/03/11 04:52:29;;;;;;;6.70;1.35;;;;;;;;;;6098341;23;20028;-76
2023/03/11 04:54:54;;;;;;;9.68;1.52;;;;;;;;;;6123831;23;20435;-76
2023/03/11 04:57:20;;;;;;;5.50;1.30;;;;;;;;;;6097630;23;20002;-76
2023/03/11 04:59:46;;;;;;;6.10;1.40;;;;;;;;;;6123550;23;20089;-76
2023/03/11 05:02:11;;;;;;;6.78;1.50;;;;;;;;;;6123887;23;20003;-77
2023/03/11 05:04:37;;;;;;;8.95;1.40;;;;;;;;;;6124121;23;20002;-76
2023/03/11 05:07:02;;;;;;;7.70;1.40;;;;;;;;;;6123895;23;20006;-77
2023/03/11 05:09:28;;;;;;;5.30;1.20;;;;;;;;;;6123788;23;20032;-75
2023/03/11 05:11:53;;;;;;;5.93;1.17;;;;;;;;;;6123690;23;20041;-76
2023/03/11 05:14:19;;;;;;;6.78;1.20;;;;;;;;;;6129524;23;20037;-77
2023/03/11 05:16:44;;;;;;;9.10;1.40;;;;;;;;;;6124168;23;20391;-76
2023/03/11 05:21:53;;;;;;;6.45;1.30;;;;;;;;;;6123498;23;20045;-76
2023/03/11 05:24:19;;;;;;;6.57;1.25;;;;;;;;;;6123865;23;20002;-76
2023/03/11 05:26:44;;;;;;;4.78;1.17;;;;;;;;;;6123498;23;20002;-76
2023/03/11 05:29:10;;;;;;;6.25;1.25;;;;;;;;;;6123822;23;20006;-75
2023/03/11 05:31:35;;;;;;;7.07;1.40;;;;;;;;;;6123461;23;20002;-74
2023/03/11 05:34:01;;;;;;;7.13;1.40;;;;;;;;;;6123570;23;20006;-75
2023/03/11 05:36:26;;;;;;;6.72;1.60;;;;;;;;;;6123496;23;20006;-76
2023/03/11 05:38:52;;;;;;;11.00;1.70;;;;;;;;;;6123475;23;20009;-75
2023/03/11 05:41:18;;;;;;;6.80;1.50;;;;;;;;;;6123511;23;20002;-75
2023/03/11 05:43:43;;;;;;;7.53;1.35;;;;;;;;;;6123736;23;20056;-75
2023/03/11 05:46:10;;;;;;;7.65;1.88;;;;;;;;;;6123819;23;20010;-75
2023/03/11 05:48:36;;;;;;;5.85;1.65;;;;;;;;;;6123589;23;20006;-75
2023/03/11 05:51:06;;;;;;;6.72;1.45;;;;;;;;;;6123180;23;20009;-75
2023/03/11 05:53:32;;;;;;;7.75;1.83;;;;;;;;;;6123307;23;20006;-75
2023/03/11 05:55:58;;;;;;;6.88;1.50;;;;;;;;;;6123488;23;20374;-75
2023/03/11 05:58:28;;;;;;;7.80;1.50;;;;;;;;;;6122999;23;20009;-75
2023/03/11 06:00:53;;;;;;;9.57;1.60;;;;;;;;;;6123183;23;20462;-75
2023/03/11 06:03:19;;;;;;;7.07;1.60;;;;;;;;;;6123368;23;20085;-76
2023/03/11 06:05:46;;;;;;;5.75;1.52;;;;;;;;;;6123176;23;20334;-76
2023/03/11 06:08:11;;;;;;;6.93;1.63;;;;;;;;;;6123157;23;20002;-76
2023/03/11 06:10:37;;;;;;;5.57;1.42;;;;;;;;;;6122883;23;20009;-76
2023/03/11 06:13:02;;;;;;;7.30;1.45;;;;;;;;;;6097130;23;20612;-76
2023/03/11 06:15:28;;;;;;;9.77;1.63;;;;;;;;;;6123299;23;20001;-75
2023/03/11 06:17:53;;;;;;;7.70;1.70;;;;;;;;;;6123095;23;20085;-76
2023/03/11 06:20:18;;;;;;;9.13;1.55;;;;;;;;;;6123251;23;20414;-75
2023/03/11 06:22:47;;;;;;;7.97;1.50;;;;;;;;;;6123217;23;20006;-76
2023/03/11 06:25:13;;;;;;;12.75;1.60;;;;;;;;;;6123060;23;20002;-75
2023/03/11 06:27:38;;;;;;;9.50;1.58;;;;;;;;;;6122847;23;20097;-76
2023/03/11 06:30:04;;;;;;;6.63;1.60;;;;;;;;;;6123312;23;20009;-75
2023/03/11 06:32:29;;;;;;;7.30;1.58;;;;;;;;;;6122898;23;20081;-74
2023/03/11 06:34:55;;;;;;;7.28;1.60;;;;;;;;;;6097055;23;20045;-75
2023/03/11 06:37:22;;;;;;;10.52;1.83;;;;;;;;;;6097291;23;20084;-75
2023/03/11 06:39:52;;;;;;;5.25;1.48;;;;;;;;;;6123150;23;20365;-74
2023/03/11 06:42:17;;;;;;;7.50;1.80;;;;;;;;;;6096487;23;20002;-75
2023/03/11 06:44:42;;;;;;;5.90;1.50;;;;;;;;;;6096922;23;20065;-75
2023/03/11 06:47:08;;;;;;;8.07;1.70;;;;;;;;;;6122914;23;20355;-75
2023/03/11 06:49:33;;;;;;;8.40;1.60;;;;;;;;;;6123205;23;20002;-75
2023/03/11 06:51:59;;;;;;;8.25;2.05;;;;;;;;;;6122962;23;20092;-76
2023/03/11 06:54:24;;;;;;;13.57;1.60;;;;;;;;;;6122971;23;20060;-77
2023/03/11 06:56:49;;;;;;;10.35;1.73;;;;;;;;;;6122890;23;20308;-77
2023/03/11 06:59:15;;;;;;;8.88;1.52;;;;;;;;;;6122525;23;20026;-77
2023/03/11 07:01:40;;;;;;;9.57;2.03;;;;;;;;;;6122457;23;20002;-76
2023/03/11 07:04:06;;;;;;;11.23;1.90;;;;;;;;;;6122773;23;20002;-77
2023/03/11 07:06:31;;;;;;;6.60;1.67;;;;;;;;;;6122771;23;20001;-77
2023/03/11 07:08:57;;;;;;;6.25;1.58;;;;;;;;;;6122786;23;20006;-74
2023/03/11 07:11:24;;;;;;;11.98;2.13;;;;;;;;;;6122886;23;20005;-75
2023/03/11 07:13:50;;;;;;;8.38;1.88;;;;;;;;;;6122614;23;20330;-77
2023/03/11 07:16:19;;;;;;;8.10;1.70;;;;;;;;;;6122641;23;20020;-76
2023/03/11 07:18:46;;;;;;;9.32;1.70;;;;;;;;;;6122426;23;20009;-77
2023/03/11 07:21:14;;;;;;;12.15;1.88;;;;;;;;;;6122387;23;20067;-76
2023/03/11 07:23:39;;;;;;;8.02;1.80;;;;;;;;;;6122691;23;20002;-76
2023/03/11 07:26:09;;;;;;;6.82;1.40;;;;;;;;;;6122694;23;20002;-75
2023/03/11 07:28:34;;;;;;;9.95;1.90;;;;;;;;;;6122922;23;20028;-75
2023/03/11 07:31:05;;;;;;;13.50;1.80;;;;;;;;;;6122382;23;20333;-74
2023/03/11 07:33:30;;;;;;;;;;;;;;;;;;6123172;23;20511;-75
2023/03/11 07:35:55;;;;;;;12.53;1.70;;;;;;;;;;6122450;23;19944;-73
2023/03/11 07:38:21;;;;;;;4.53;1.45;;;;;;;;;;6128911;23;20238;-76
2023/03/11 07:40:46;;;;;;;5.15;1.52;;;;;;;;;;6133702;23;20002;-76
2023/03/11 07:43:11;;;;;;;9.60;1.85;;;;;;;;;;6132124;23;20053;-76
2023/03/11 07:45:37;;;;;;;7.45;1.85;;;;;;;;;;6128590;23;20485;-76
2023/03/11 07:48:02;;;;;;;7.10;1.95;;;;;;;;;;6131360;23;20262;-70
2023/03/11 07:50:28;;;;;;;8.15;1.65;;;;;;;;;;6135413;23;19997;-78
2023/03/11 07:52:53;;;;;;;8.93;1.80;;;;;;;;;;6135369;23;20005;-72
2023/03/11 07:55:19;;;;;;;8.43;1.70;;;;;;;;;;6109717;23;20065;-71
2023/03/11 07:57:48;;;;;;;8.95;1.73;;;;;;;;;;6135068;23;20081;-73
2023/03/11 08:00:14;;;;;;;11.52;1.80;;;;;;;;;;6109588;23;20002;-75
2023/03/11 08:02:39;;;;;;;5.85;1.60;;;;;;;;;;6134795;23;20017;-74
2023/03/11 08:05:05;;;;;;;7.35;1.90;;;;;;;;;;6135748;23;20005;-74
2023/03/11 08:07:32;;;;;;;9.07;1.88;;;;;;;;;;6133778;23;20424;-75
2023/03/11 08:09:57;;;;;;;8.23;1.75;;;;;;;;;;6135359;23;20002;-73
2023/03/11 08:12:23;;;;;;;8.30;1.73;;;;;;;;;;6109014;23;20006;-72
2023/03/11 08:14:48;;;;;;;9.05;1.85;;;;;;;;;;6135140;23;20053;-74
2023/03/11 08:17:13;;;;;;;6.50;1.50;;;;;;;;;;6135282;23;19998;-74
2023/03/11 08:19:39;;;;;;;7.70;1.75;;;;;;;;;;6134859;23;20001;-73
2023/03/11 08:22:04;;;;;;;8.73;2.05;;;;;;;;;;6135318;23;20285;-73
2023/03/11 08:24:30;;;;;;;11.32;1.85;;;;;;;;;;6133746;23;19998;-73
2023/03/11 08:26:55;;;;;;;10.55;2.05;;;;;;;;;;6134768;23;20002;-73
2023/03/11 08:29:22;;;;;;;7.85;1.83;;;;;;;;;;6135178;23;20037;-73
2023/03/11 08:31:48;;;;;;;8.77;1.90;;;;;;;;;;6133932;23;20002;-74
2023/03/11 08:34:14;;;;;;;10.73;1.83;;;;;;;;;;6134624;23;20022;-72
2023/03/11 08:36:39;;;;;;;11.85;2.00;;;;;;;;;;6133973;23;20057;-74
2023/03/11 08:39:05;;;;;;;8.27;1.90;;;;;;;;;;6134081;23;20293;-74
2023/03/11 08:41:31;;;;;;;8.65;2.05;;;;;;;;;;6109090;23;20008;-74
2023/03/11 08:43:56;;;;;;;7.10;1.75;;;;;;;;;;6108621;23;20064;-69
2023/03/11 08:46:31;;;;;;;9.50;1.80;;;;;;;;;;6135007;23;20002;-70
2023/03/11 08:48:58;;;;;;;9.63;2.08;;;;;;;;;;6135027;23;20065;-69
2023/03/11 08:51:24;;;;;;;7.95;2.08;;;;;;;;;;6134264;23;20006;-67
2023/03/11 08:53:50;;;;;;;9.10;1.90;;;;;;;;;;6134784;23;20001;-71
2023/03/11 08:56:16;;;;;;;12.07;2.13;;;;;;;;;;6134869;23;20025;-72
2023/03/11 08:58:41;;;;;;;10.98;2.03;;;;;;;;;;6134772;23;20009;-73
2023/03/11 09:01:10;;;;;;;7.70;1.80;;;;;;;;;;6135007;23;20009;-73
2023/03/11 09:03:36;;;;;;;11.90;2.17;;;;;;;;;;6134414;23;20002;-72
2023/03/11 09:06:04;;;;;;;8.18;1.80;;;;;;;;;;6134714;23;20057;-78
2023/03/11 09:08:29;;;;;;;10.40;2.40;;;;;;;;;;6134584;23;20017;-69
2023/03/11 09:10:55;;;;;;;6.53;1.88;;;;;;;;;;6133573;23;19998;-68
2023/03/11 09:13:20;;;;;;;7.03;1.70;;;;;;;;;;6134341;23;20278;-76
2023/03/11 09:15:50;;;;;;;8.60;1.90;;;;;;;;;;6134131;23;20029;-74
2023/03/11 09:18:16;;;;;;;6.80;1.75;;;;;;;;;;6134257;23;20009;-77
2023/03/11 09:20:42;;;;;;;7.22;2.10;;;;;;;;;;6131160;23;19998;-72
2023/03/11 09:23:09;;;;;;;6.63;1.80;;;;;;;;;;6130551;23;19998;-73
2023/03/11 09:25:35;;;;;;;11.00;2.05;;;;;;;;;;6121347;23;20053;-70
2023/03/11 09:28:00;;;;;;;8.38;1.90;;;;;;;;;;6125295;23;20021;-68
2023/03/11 09:30:26;;;;;;;10.25;2.00;;;;;;;;;;6127938;23;20013;-70
2023/03/11 09:32:51;;;;;;;9.07;2.05;;;;;;;;;;6134457;23;20041;-71
2023/03/11 09:35:17;;;;;;;8.13;1.98;;;;;;;;;;6134471;23;19998;-76
2023/03/11 09:37:42;;;;;;;8.60;2.20;;;;;;;;;;6106324;23;20005;-71
2023/03/11 09:40:11;;;;;;;5.25;1.60;;;;;;;;;;6134596;23;19998;-72
2023/03/11 09:42:51;;;;;;;10.98;1.98;;;;;;;;;;6134095;23;19998;-71
2023/03/11 09:45:27;;;;;;;5.90;1.70;;;;;;;;;;6131263;23;19998;-69
2023/03/11 09:48:30;;;;;;;6.60;1.60;;;;;;;;;;6132517;23;20313;-71
2023/03/11 09:51:14;;;;;;;4.95;1.60;;;;;;;;;;6132849;23;20021;-73
2023/03/11 09:53:44;;;;;;;7.53;1.70;;;;;;;;;;6103106;23;20048;-70
2023/03/11 09:56:17;;;;;;;7.00;1.83;;;;;;;;;;6123797;23;20339;-73
2023/03/11 09:58:50;;;;;;;7.65;1.80;;;;;;;;;;6122299;23;20022;-70
2023/03/11 10:01:36;;;;;;;7.63;1.55;;;;;;;;;;6121682;23;20080;-74
2023/03/11 10:04:13;;;;;;;8.15;1.80;;;;;;;;;;6121021;23;20006;-71
2023/03/11 10:06:40;;;;;;;7.60;1.70;;;;;;;;;;6121084;23;20037;-73
2023/03/11 10:09:11;;;;;;;7.68;1.67;;;;;;;;;;6120647;23;20007;-72
2023/03/11 10:11:55;;;;;;;7.22;1.60;;;;;;;;;;6121036;23;20012;-71
2023/03/11 10:14:36;;;;;;;7.90;1.70;;;;;;;;;;6120474;23;20006;-71
2023/03/11 10:17:23;;;;;;;5.10;1.70;;;;;;;;;;6120859;23;20037;-71
2023/03/11 10:20:13;;;;;;;4.90;1.55;;;;;;;;;;6122130;23;20131;-70
2023/03/11 10:22:57;;;;;;;4.97;1.43;;;;;;;;;;6095861;23;20021;-75
2023/03/11 10:25:46;;;;;;;6.38;1.42;;;;;;;;;;6122389;23;20373;-71
2023/03/11 10:28:15;;;;;;;6.82;1.67;;;;;;;;;;6122684;23;20454;-72
2023/03/11 10:31:02;;;;;;;4.22;1.50;;;;;;;;;;6122971;23;19998;-69
2023/03/11 10:33:45;;;;;;;3.55;1.23;;;;;;;;;;6122463;23;20006;-75
2023/03/11 10:36:16;;;;;;;4.72;1.13;;;;;;;;;;6122736;23;20338;-73
2023/03/11 10:38:48;;;;;;;3.03;1.10;;;;;;;;;;6122697;23;20009;-74
2023/03/11 10:41:22;;;;;;;1.77;0.80;;;;;;;;;;6126700;23;20598;-75
2023/03/11 10:43:56;;;;;;;2.63;0.80;;;;;;;;;;6121742;23;20038;-73
2023/03/11 10:46:27;;;;;;;2.85;1.00;;;;;;;;;;6121189;23;20013;-71
2023/03/11 10:48:53;;;;;;;2.38;0.90;;;;;;;;;;6122723;23;20026;-72
2023/03/11 10:51:21;;;;;;;2.80;0.90;;;;;;;;;;6121016;23;20009;-73
2023/03/11 10:53:58;;;;;;;3.38;1.05;;;;;;;;;;6122705;23;20041;-71
2023/03/11 10:56:26;;;;;;;3.65;1.25;;;;;;;;;;6121198;23;20415;-72
2023/03/11 10:58:51;;;;;;;3.13;0.82;;;;;;;;;;6122147;23;20021;-72
2023/03/11 11:01:17;;;;;;;1.60;0.90;;;;;;;;;;6095695;23;20002;-74
2023/03/11 11:03:47;;;;;;;2.10;0.88;;;;;;;;;;6122311;23;20014;-74
2023/03/11 11:06:45;;;;;;;1.52;0.90;;;;;;;;;;6122685;23;20006;-74
2023/03/11 11:09:19;;;;;;;1.35;0.80;;;;;;;;;;6042289;23;20014;-75
2023/03/11 11:12:12;;;;;;;1.50;0.80;;;;;;;;;;6122144;23;20006;-74
2023/03/11 11:14:46;;;;;;;1.45;0.80;;;;;;;;;;6121920;23;20424;-75
2023/03/11 11:17:29;;;;;;;0.98;0.57;;;;;;;;;;6122710;23;20033;-75
2023/03/11 11:19:57;;;;;;;0.82;0.52;;;;;;;;;;6122301;23;20084;-74
2023/03/11 11:22:24;;;;;;;0.85;0.50;;;;;;;;;;6122581;23;20030;-72
2023/03/11 11:24:53;;;;;;;1.85;0.77;;;;;;;;;;6122733;23;20052;-71
2023/03/11 11:27:21;;;;;;;1.88;0.50;;;;;;;;;;6122299;23;20001;-75
2023/03/11 11:30:01;;;;;;;1.75;0.50;;;;;;;;;;6122532;23;20097;-71
2023/03/11 11:32:28;;;;;;;0.67;0.50;;;;;;;;;;6096262;23;20041;-73
2023/03/11 11:35:02;;;;;;;0.95;0.60;;;;;;;;;;6122196;23;20237;-74
2023/03/11 11:37:30;;;;;;;1.38;0.50;;;;;;;;;;6122776;23;20009;-75
2023/03/11 11:40:09;;;;;;;1.23;0.60;;;;;;;;;;6122583;23;20071;-75
2023/03/11 11:42:37;;;;;;;0.90;0.50;;;;;;;;;;6122565;23;20070;-72
2023/03/11 11:45:20;;;;;;;0.88;0.50;;;;;;;;;;6122338;23;20085;-74
2023/03/11 11:47:51;;;;;;;0.98;0.50;;;;;;;;;;6122341;23;20002;-75
2023/03/11 11:50:35;;;;;;;1.67;0.75;;;;;;;;;;6122233;23;20017;-73
2023/03/11 11:53:27;;;;;;;1.60;0.65;;;;;;;;;;6122340;23;20332;-71
2023/03/11 11:55:53;;;;;;;1.23;0.80;;;;;;;;;;6122557;23;20115;-70
2023/03/11 11:58:20;;;;;;;1.35;0.70;;;;;;;;;;6122162;23;20036;-70
2023/03/11 12:01:13;;;;;;;0.77;0.50;;;;;;;;;;6122294;23;20340;-70
2023/03/11 12:03:59;;;;;;;1.90;0.73;;;;;;;;;;6121962;23;20009;-73
2023/03/11 12:06:47;;;;;;;0.65;0.40;;;;;;;;;;6122495;23;20057;-71
2023/03/11 12:09:30;;;;;;;1.67;0.70;;;;;;;;;;6122510;23;20006;-71
2023/03/11 12:12:02;;;;;;;1.55;0.73;;;;;;;;;;6122268;23;20038;-73
2023/03/11 12:14:27;;;;;;;1.23;0.73;;;;;;;;;;6122316;23;20066;-71
2023/03/11 12:16:58;;;;;;;3.08;0.80;;;;;;;;;;6122512;23;20006;-71
2023/03/11 12:19:29;;;;;;;;;;;;;;;;;;6122871;23;20009;-71
2023/03/11 12:22:24;;;;;;;2.90;0.90;;;;;;;;;;6122218;23;20449;-71
2023/03/11 12:25:05;;;;;;;2.17;0.82;;;;;;;;;;6120931;23;20006;-71
2023/03/11 12:27:39;;;;;;;1.52;0.80;;;;;;;;;;6122295;23;20426;-70
2023/03/11 12:30:15;;;;;;;1.67;0.80;;;;;;;;;;6122401;23;20078;-71
2023/03/11 12:32:46;;;;;;;2.00;1.30;;;;;;;;;;6123948;23;20102;-72
2023/03/11 12:35:28;;;;;;;1.58;0.90;;;;;;;;;;6123831;23;20086;-73
2023/03/11 12:38:05;;;;;;;1.55;0.70;;;;;;;;;;6123901;23;20005;-72
2023/03/11 12:40:46;;;;;;;0.82;0.50;;;;;;;;;;6097745;23;20580;-71
2023/03/11 12:43:34;;;;;;;1.98;1.00;;;;;;;;;;6123860;23;20002;-70
2023/03/11 12:46:18;;;;;;;2.00;0.90;;;;;;;;;;6124119;23;20520;-71
2023/03/11 12:49:05;;;;;;;2.45;0.60;;;;;;;;;;6123980;23;20049;-74
2023/03/11 12:51:36;;;;;;;0.88;0.52;;;;;;;;;;6124082;23;20034;-74
2023/03/11 12:54:21;;;;;;;;;;;;;;;;;;6124270;23;20002;-71
2023/03/11 12:56:55;;;;;;;1.88;0.80;;;;;;;;;;6123716;23;20074;-74
2023/03/11 12:59:46;;;;;;;2.55;0.60;;;;;;;;;;6123616;23;20021;-74
2023/03/11 13:02:31;;;;;;;1.95;0.77;;;;;;;;;;6124152;23;20029;-74
2023/03/11 13:05:21;;;;;;;3.08;0.68;;;;;;;;;;6123643;23;20010;-73
2023/03/11 13:08:14;;;;;;;1.90;0.80;;;;;;;;;;6124029;23;20016;-72
2023/03/11 13:10:43;;;;;;;1.40;0.50;;;;;;;;;;6118351;23;20371;-74
2023/03/11 13:13:21;;;;;;;1.27;0.60;;;;;;;;;;6123774;23;20002;-75
2023/03/11 13:15:47;;;;;;;1.05;0.60;;;;;;;;;;6123475;23;20029;-74
2023/03/11 13:18:12;;;;;;;2.60;0.60;;;;;;;;;;6123690;23;20014;-73
2023/03/11 13:20:38;;;;;;;1.77;0.70;;;;;;;;;;6123870;23;20013;-71
2023/03/11 13:23:12;;;;;;;0.95;0.60;;;;;;;;;;6123747;23;20025;-71
2023/03/11 13:25:40;;;;;;;2.45;0.77;;;;;;;;;;6123607;23;20056;-74
2023/03/11 13:28:11;;;;;;;2.30;0.80;;;;;;;;;;6123632;23;20407;-71
2023/03/11 13:30:42;;;;;;;1.60;0.68;;;;;;;;;;6123494;23;20026;-72
2023/03/11 13:33:39;;;;;;;1.95;0.65;;;;;;;;;;6123333;23;20006;-75
2023/03/11 13:37:04;;;;;;;1.90;0.57;;;;;;;;;;6066233;23;20154;-72
2023/03/11 13:39:38;;;;;;;1.13;0.60;;;;;;;;;;6043516;23;20411;-76
2023/03/11 13:42:33;;;;;;;0.68;0.47;;;;;;;;;;6123266;23;20406;-75
2023/03/11 13:44:58;;;;;;;3.13;0.50;;;;;;;;;;6122276;23;20501;-73
2023/03/11 13:47:25;;;;;;;0.50;0.40;;;;;;;;;;6123639;23;20006;-73
2023/03/11 13:49:56;;;;;;;0.43;0.40;;;;;;;;;;6123176;23;20065;-75
2023/03/11 13:52:34;;;;;;;0.68;0.40;;;;;;;;;;6123296;23;20006;-75
2023/03/11 13:55:44;;;;;;;1.17;0.68;;;;;;;;;;6123181;23;20010;-75
2023/03/11 13:58:23;;;;;;;0.95;0.52;;;;;;;;;;5976410;24;20020;-71
2023/03/11 14:00:52;;;;;;;1.23;0.45;;;;;;;;;;6114989;23;20017;-72
2023/03/11 14:03:21;;;;;;;2.53;0.52;;;;;;;;;;6123033;23;20010;-70
2023/03/11 14:05:49;;;;;;;0.85;0.50;;;;;;;;;;6097355;23;20029;-75
2023/03/11 14:08:24;;;;;;;1.08;0.57;;;;;;;;;;6123025;23;20013;-70
2023/03/11 14:10:59;;;;;;;0.82;0.57;;;;;;;;;;6123226;23;20033;-73
2023/03/11 14:13:28;;;;;;;1.05;0.68;;;;;;;;;;6096868;23;20063;-73
2023/03/11 14:16:14;;;;;;;0.82;0.60;;;;;;;;;;6123054;23;20412;-75
2023/03/11 14:18:45;;;;;;;0.68;0.60;;;;;;;;;;6122978;23;20006;-71
2023/03/11 14:21:16;;;;;;;1.08;0.55;;;;;;;;;;6123142;23;20006;-72
2023/03/11 14:23:45;;;;;;;2.92;0.80;;;;;;;;;;6122904;23;20006;-73
2023/03/11 14:26:20;;;;;;;1.30;0.68;;;;;;;;;;6096690;23;20006;-73
2023/03/11 14:28:49;;;;;;;1.40;0.80;;;;;;;;;;6123008;23;20001;-71
2023/03/11 14:31:28;;;;;;;1.75;0.70;;;;;;;;;;6123112;23;20002;-75
2023/03/11 14:34:03;;;;;;;1.73;0.80;;;;;;;;;;6122914;23;20014;-73
2023/03/11 14:36:31;;;;;;;1.50;0.70;;;;;;;;;;6123155;23;20006;-70
2023/03/11 14:38:57;;;;;;;1.48;0.70;;;;;;;;;;6122639;23;20722;-73
2023/03/11 14:41:22;;;;;;;1.25;0.80;;;;;;;;;;6122678;23;20008;-72
2023/03/11 14:43:52;;;;;;;1.67;0.90;;;;;;;;;;6122723;23;19998;-71
2023/03/11 14:46:27;;;;;;;2.15;1.15;;;;;;;;;;6122602;23;20006;-72
2023/03/11 14:48:54;;;;;;;2.90;0.95;;;;;;;;;;6122814;23;20084;-73
2023/03/11 14:51:30;;;;;;;1.65;0.95;;;;;;;;;;6122987;23;20425;-73
2023/03/11 14:54:16;;;;;;;1.98;0.93;;;;;;;;;;6096738;23;20411;-72
2023/03/11 14:56:46;;;;;;;1.63;0.70;;;;;;;;;;6096491;23;20097;-71
2023/03/11 14:59:25;;;;;;;1.33;1.10;;;;;;;;;;6122381;23;20018;-72
2023/03/11 15:01:54;;;;;;;1.98;1.10;;;;;;;;;;6122759;23;20065;-71
2023/03/11 15:04:33;;;;;;;2.67;1.00;;;;;;;;;;6122514;23;20490;-69